Time;durP1;ratioP1;P1;durP2;ratioP2;P2;SDS_P1;SDS_P2;PMS_P1;PMS_P2;Temp;Humidity;BMP_temperature;BMP_pressure;BME280_temperature;BME280_humidity;BME280_pressure;Samples;Min_cycle;Max_cycle;Signal;HPM_P1;HPM_P2
2023/10/09 00:00:30;;;;;;;25.30;24.20;;;;;;;10.21;100.00;102080.50;5066295;28;20459;-38
2023/10/09 00:02:48;;;;;;;27.90;26.80;;;;;;;10.22;100.00;102071.47;5066232;28;20442;-37
2023/10/09 00:05:23;;;;;;;25.47;24.50;;;;;;;10.17;100.00;102069.31;5079760;28;20438;-40
2023/10/09 00:07:55;;;;;;;25.63;24.73;;;;;;;10.17;100.00;102063.13;5080220;28;20521;-38
2023/10/09 00:10:24;;;;;;;24.73;23.93;;;;;;;10.14;100.00;102072.31;5078939;28;20458;-38
2023/10/09 00:12:52;;;;;;;25.80;24.90;;;;;;;10.10;100.00;102067.41;5074473;28;20466;-40
2023/10/09 00:15:20;;;;;;;28.37;26.97;;;;;;;10.06;100.00;102063.41;5077549;28;20507;-38
2023/10/09 00:17:49;;;;;;;28.40;27.00;;;;;;;10.05;100.00;102053.75;5079049;28;21042;-41
2023/10/09 00:20:20;;;;;;;25.00;24.10;;;;;;;9.98;100.00;102040.22;5070978;28;20451;-43
2023/10/09 00:22:48;;;;;;;26.43;25.20;;;;;;;9.94;100.00;102042.38;5072713;28;20466;-38
2023/10/09 00:25:22;;;;;;;25.13;24.23;;;;;;;9.87;100.00;102037.84;5071068;28;20441;-38
2023/10/09 00:27:49;;;;;;;23.80;22.93;;;;;;;9.87;100.00;102021.88;5065375;28;20451;-41
2023/10/09 00:30:20;;;;;;;23.27;22.43;;;;;;;9.82;100.00;102019.69;5064926;28;20505;-40
2023/10/09 00:32:59;;;;;;;22.33;21.53;;;;;;;9.76;100.00;102003.50;5079894;28;20495;-38
2023/10/09 00:35:46;;;;;;;22.80;22.00;;;;;;;9.71;100.00;101984.50;5062983;28;20452;-38
2023/10/09 00:38:23;;;;;;;22.23;21.47;;;;;;;9.66;100.00;101986.81;5069725;28;20481;-40
2023/10/09 00:41:09;;;;;;;21.37;20.57;;;;;;;9.62;100.00;101988.13;5055651;28;20527;-41
2023/10/09 00:43:37;;;;;;;21.50;20.77;;;;;;;9.62;100.00;101980.13;5079159;28;20476;-42
2023/10/09 00:46:12;;;;;;;22.30;21.50;;;;;;;9.64;100.00;102002.13;5074223;28;20431;-41
2023/10/09 00:48:40;;;;;;;21.00;20.30;;;;;;;9.66;100.00;102016.09;5061786;28;21097;-40
2023/10/09 00:51:18;;;;;;;20.73;20.10;;;;;;;9.69;100.00;101999.81;5079185;28;20442;-38
2023/10/09 00:53:50;;;;;;;23.43;22.57;;;;;;;9.71;100.00;102003.13;5056335;28;20438;-41
2023/10/09 00:56:26;;;;;;;21.90;21.20;;;;;;;9.71;100.00;102001.31;5062678;28;20478;-40
2023/10/09 00:59:00;;;;;;;22.40;21.70;;;;;;;9.72;100.00;102013.66;5066761;28;20464;-41
2023/10/09 01:01:34;;;;;;;23.00;22.23;;;;;;;9.73;100.00;102019.81;5074035;28;20495;-41
2023/10/09 01:04:06;;;;;;;21.73;20.90;;;;;;;9.70;100.00;102020.13;5060499;28;20965;-39
2023/10/09 01:06:42;;;;;;;20.37;19.77;;;;;;;9.68;100.00;102011.44;5061189;28;20438;-38
2023/10/09 01:09:13;;;;;;;20.20;19.60;;;;;;;9.67;100.00;102002.66;5077814;28;20549;-44
2023/10/09 01:11:48;;;;;;;22.70;21.90;;;;;;;9.67;100.00;101986.66;5051438;28;20795;-40
2023/10/09 01:14:17;;;;;;;23.70;22.70;;;;;;;9.65;100.00;101988.63;5067201;28;20438;-43
2023/10/09 01:16:46;;;;;;;22.30;21.50;;;;;;;9.63;100.00;101974.66;5078957;28;20474;-42
2023/10/09 01:19:20;;;;;;;22.30;21.50;;;;;;;9.63;100.00;101966.66;5077820;28;20459;-39
2023/10/09 01:21:50;;;;;;;21.80;21.10;;;;;;;9.61;100.00;101975.81;5064022;28;20438;-43
2023/10/09 01:24:20;;;;;;;22.00;21.20;;;;;;;9.58;100.00;101984.97;5078145;28;20981;-40
2023/10/09 01:26:49;;;;;;;22.37;21.60;;;;;;;9.57;100.00;101977.97;5068347;28;20442;-40
2023/10/09 01:29:19;;;;;;;22.13;21.23;;;;;;;9.56;100.00;101970.16;5069699;28;20512;-42
2023/10/09 01:31:54;;;;;;;21.33;20.63;;;;;;;9.52;100.00;101964.28;5078463;28;20484;-38
2023/10/09 01:34:26;;;;;;;22.80;21.90;;;;;;;9.43;100.00;101955.44;5078223;28;20517;-40
2023/10/09 01:36:55;;;;;;;21.80;21.03;;;;;;;9.38;100.00;101946.25;5073485;28;20494;-42
2023/10/09 01:39:28;;;;;;;22.83;22.03;;;;;;;9.36;100.00;101956.22;5074646;28;20893;-44
2023/10/09 01:41:59;;;;;;;22.37;21.67;;;;;;;9.28;100.00;101940.22;5061658;28;20497;-43
2023/10/09 01:44:28;;;;;;;21.73;20.93;;;;;;;9.28;100.00;101933.06;5068273;28;20445;-37
2023/10/09 01:46:58;;;;;;;22.20;21.30;;;;;;;9.20;100.00;101943.66;5066352;28;20527;-44
2023/10/09 01:49:32;;;;;;;23.13;22.23;;;;;;;9.11;100.00;101938.47;5066399;28;20806;-41
2023/10/09 01:52:06;;;;;;;22.00;21.30;;;;;;;9.13;100.00;101936.47;5078078;28;20526;-38
2023/10/09 01:54:37;;;;;;;21.77;20.93;;;;;;;9.09;100.00;101938.63;5058905;28;20440;-44
2023/10/09 01:57:11;;;;;;;22.40;21.60;;;;;;;9.09;100.00;101937.78;5066176;28;20475;-38
2023/10/09 01:59:43;;;;;;;22.00;21.30;;;;;;;9.07;100.00;101923.81;5076430;28;20515;-42
2023/10/09 02:02:31;;;;;;;23.23;22.20;;;;;;;9.05;100.00;101907.97;5077859;28;20537;-38
2023/10/09 02:05:09;;;;;;;22.80;21.90;;;;;;;9.08;100.00;101891.69;5064742;28;20438;-40
2023/10/09 02:07:51;;;;;;;23.70;22.70;;;;;;;9.01;100.00;101882.69;5069496;28;20450;-41
2023/10/09 02:10:25;;;;;;;23.93;22.93;;;;;;;9.03;100.00;101875.38;5076884;28;20481;-40
2023/10/09 02:12:57;;;;;;;23.10;22.30;;;;;;;8.97;100.00;101872.53;5077530;28;20466;-39
2023/10/09 02:18:27;;;;;;;25.00;23.93;;;;;;;8.92;100.00;101857.06;5147726;27;20520;-42
2023/10/09 02:21:13;;;;;;;24.63;23.83;;;;;;;8.93;100.00;101853.38;5081975;28;20433;-38
2023/10/09 02:23:45;;;;;;;24.53;23.73;;;;;;;8.88;100.00;101843.22;5081975;28;20435;-39
2023/10/09 02:26:23;;;;;;;25.43;24.43;;;;;;;8.93;100.00;101836.59;5082190;28;20477;-38
2023/10/09 02:28:58;;;;;;;25.67;24.87;;;;;;;8.96;100.00;101830.97;5073257;28;20527;-40
2023/10/09 02:31:35;;;;;;;26.23;25.33;;;;;;;8.96;100.00;101828.31;5073199;28;20444;-42
2023/10/09 02:34:11;;;;;;;27.00;26.10;;;;;;;8.95;100.00;101818.66;5088118;28;20444;-41
2023/10/09 02:36:41;;;;;;;26.63;25.67;;;;;;;8.97;100.00;101806.84;5073622;28;20494;-39
2023/10/09 02:39:22;;;;;;;27.07;26.03;;;;;;;8.92;100.00;101806.50;5072790;28;20459;-40
2023/10/09 02:41:52;;;;;;;27.13;26.13;;;;;;;8.92;100.00;101806.50;5073152;28;20446;-37
2023/10/09 02:44:24;;;;;;;26.37;25.47;;;;;;;8.95;100.00;101808.00;5090442;28;20494;-39
2023/10/09 02:46:57;;;;;;;27.30;26.30;;;;;;;8.94;100.00;101803.66;5073319;28;20431;-38
2023/10/09 02:49:27;;;;;;;26.60;25.60;;;;;;;8.94;100.00;101793.88;5093045;28;20457;-39
2023/10/09 02:51:56;;;;;;;27.97;26.77;;;;;;;8.95;100.00;101794.72;5092970;28;20469;-39
2023/10/09 02:54:35;;;;;;;26.80;25.80;;;;;;;8.96;100.00;101799.03;5102154;28;20468;-43
2023/10/09 02:57:07;;;;;;;28.03;27.00;;;;;;;8.95;100.00;101795.53;5093442;28;20473;-38
2023/10/09 02:59:38;;;;;;;28.50;27.23;;;;;;;8.91;100.00;101804.81;5092289;28;20591;-39
2023/10/09 03:02:07;;;;;;;27.77;26.67;;;;;;;8.89;100.00;101796.19;5092438;28;20430;-39
2023/10/09 03:04:37;;;;;;;29.43;28.13;;;;;;;8.89;100.00;101788.22;5092807;28;20444;-44
2023/10/09 03:07:07;;;;;;;28.30;27.03;;;;;;;8.87;100.00;101784.84;5087691;28;20451;-41
2023/10/09 03:09:35;;;;;;;28.47;27.27;;;;;;;8.89;100.00;101774.91;5090970;28;20548;-41
2023/10/09 03:12:05;;;;;;;29.10;27.90;;;;;;;8.93;100.00;101768.25;5093184;28;20433;-38
2023/10/09 03:14:38;;;;;;;27.57;26.67;;;;;;;8.96;100.00;101767.94;5093395;28;20425;-39
2023/10/09 03:17:06;;;;;;;27.63;26.53;;;;;;;8.99;100.00;101754.31;5092889;28;20914;-40
2023/10/09 03:19:37;;;;;;;27.63;26.60;;;;;;;9.03;100.00;101760.97;5092522;28;20457;-38
2023/10/09 03:22:09;;;;;;;28.60;27.50;;;;;;;8.99;100.00;101764.94;5092964;28;20494;-44
2023/10/09 03:24:37;;;;;;;29.03;27.87;;;;;;;9.02;100.00;101766.47;5092377;28;20445;-38
2023/10/09 03:27:05;;;;;;;28.80;27.67;;;;;;;9.02;100.00;101751.31;5093062;28;20457;-39
2023/10/09 03:29:33;;;;;;;29.93;28.73;;;;;;;9.05;100.00;101758.16;5071254;28;20454;-40
2023/10/09 03:32:01;;;;;;;29.13;28.03;;;;;;;9.07;100.00;101758.84;5079225;28;20442;-39
2023/10/09 03:34:30;;;;;;;28.90;27.80;;;;;;;9.07;100.00;101743.72;5071089;28;20829;-39
2023/10/09 03:37:05;;;;;;;30.10;28.90;;;;;;;9.15;100.00;101751.69;5073514;28;20471;-39
2023/10/09 03:39:40;;;;;;;30.00;28.70;;;;;;;9.20;100.00;101743.25;5068452;28;20454;-38
2023/10/09 03:42:18;;;;;;;29.53;28.23;;;;;;;9.21;100.00;101743.06;5079244;28;20445;-39
2023/10/09 03:44:52;;;;;;;31.00;29.70;;;;;;;9.24;100.00;101747.22;5075273;28;20466;-39
2023/10/09 03:47:22;;;;;;;30.10;28.90;;;;;;;9.22;100.00;101743.91;5066374;28;20980;-39
2023/10/09 03:49:51;;;;;;;31.10;29.80;;;;;;;9.21;100.00;101745.72;5077975;28;20458;-38
2023/10/09 03:52:20;;;;;;;31.40;30.07;;;;;;;9.23;100.00;101748.22;5071482;28;20443;-39
2023/10/09 03:54:49;;;;;;;31.23;29.93;;;;;;;9.26;100.00;101740.72;5079253;28;20480;-38
2023/10/09 03:57:19;;;;;;;33.23;31.73;;;;;;;9.29;100.00;101727.09;5071070;28;20570;-39
2023/10/09 03:59:47;;;;;;;32.27;30.87;;;;;;;9.33;100.00;101732.94;5084217;28;20453;-41
2023/10/09 04:02:16;;;;;;;32.90;31.50;;;;;;;9.32;100.00;101732.09;5099070;28;20437;-43
2023/10/09 04:04:46;;;;;;;33.40;31.87;;;;;;;9.37;100.00;101728.97;5090935;28;20456;-45
2023/10/09 04:07:16;;;;;;;34.03;32.63;;;;;;;9.43;100.00;101730.97;5088696;28;20457;-42
2023/10/09 04:09:53;;;;;;;32.63;31.33;;;;;;;9.44;100.00;101717.47;5083845;28;20457;-42
2023/10/09 04:12:24;;;;;;;33.80;32.40;;;;;;;9.47;100.00;101710.97;5093082;28;20459;-41
2023/10/09 04:14:57;;;;;;;34.97;33.50;;;;;;;9.49;100.00;101708.16;5081297;28;20450;-44
2023/10/09 04:17:35;;;;;;;34.93;33.43;;;;;;;9.51;100.00;101711.47;5072690;28;20477;-43
2023/10/09 04:22:59;;;;;;;34.70;33.30;;;;;;;9.55;100.00;101696.84;5089227;28;20434;-44
2023/10/09 04:25:29;;;;;;;36.90;35.30;;;;;;;9.58;100.00;101688.53;5081373;28;20448;-47
2023/10/09 04:28:08;;;;;;;37.67;35.97;;;;;;;9.63;100.00;101689.69;5080783;28;20453;-41
2023/10/09 04:30:40;;;;;;;36.93;35.33;;;;;;;9.68;100.00;101686.50;5092665;28;20437;-43
2023/10/09 04:33:27;;;;;;;37.70;36.10;;;;;;;9.71;100.00;101681.69;5092997;28;20441;-42
2023/10/09 04:38:38;;;;;;;38.60;37.00;;;;;;;9.77;100.00;101670.34;5081676;28;20539;-41
2023/10/09 04:41:09;;;;;;;38.93;37.23;;;;;;;9.80;100.00;101654.03;5079751;28;20530;-42
2023/10/09 04:43:35;;;;;;;37.83;36.33;;;;;;;9.83;100.00;101653.69;5090510;28;20495;-42
2023/10/09 04:46:12;;;;;;;40.30;38.30;;;;;;;9.86;100.00;101655.19;5084161;28;20933;-42
2023/10/09 04:48:39;;;;;;;38.13;36.53;;;;;;;9.89;100.00;101657.50;5083493;28;20493;-42
2023/10/09 04:51:34;;;;;;;39.87;38.00;;;;;;;9.87;100.00;101656.84;5092724;28;20433;-42
2023/10/09 04:54:12;;;;;;;38.30;36.60;;;;;;;9.90;100.00;101654.69;5080791;28;20508;-42
2023/10/09 04:56:52;;;;;;;38.77;37.00;;;;;;;9.91;100.00;101651.03;5090824;28;20524;-42
2023/10/09 04:59:24;;;;;;;38.73;36.93;;;;;;;9.94;100.00;101636.53;5091823;28;20467;-44
2023/10/09 05:01:58;;;;;;;39.30;37.50;;;;;;;9.92;100.00;101639.34;5075886;28;20438;-42
2023/10/09 05:04:39;;;;;;;39.07;37.27;;;;;;;9.95;100.00;101631.03;5075914;28;20430;-42
2023/10/09 05:10:14;;;;;;;40.93;39.13;;;;;;;9.94;100.00;101615.22;5056077;28;20477;-43
2023/10/09 05:12:47;;;;;;;41.00;39.00;;;;;;;9.95;100.00;101609.72;5051612;28;20435;-40
2023/10/09 05:15:15;;;;;;;39.03;37.13;;;;;;;9.94;100.00;101602.75;5051899;28;20980;-41
2023/10/09 05:17:51;;;;;;;40.93;39.03;;;;;;;9.90;100.00;101598.75;5053816;28;20479;-43
2023/10/09 05:23:23;;;;;;;40.70;38.53;;;;;;;9.92;100.00;101618.03;5052109;28;20779;-41
2023/10/09 05:25:55;;;;;;;41.63;39.43;;;;;;;9.96;100.00;101618.53;5052147;28;20435;-40
2023/10/09 05:28:31;;;;;;;39.90;38.00;;;;;;;9.99;100.00;101618.19;5058402;28;20554;-40
2023/10/09 05:31:08;;;;;;;42.27;40.03;;;;;;;10.02;100.00;101620.50;5071373;28;20431;-42
2023/10/09 05:33:37;;;;;;;40.63;38.73;;;;;;;10.03;100.00;101625.66;5071758;28;20528;-40
2023/10/09 05:36:17;;;;;;;38.47;36.77;;;;;;;10.07;100.00;101617.31;5071367;28;20973;-42
2023/10/09 05:38:58;;;;;;;40.20;37.97;;;;;;;10.08;100.00;101617.16;5064839;28;20459;-41
2023/10/09 05:41:46;;;;;;;39.47;37.47;;;;;;;10.13;100.00;101619.28;5051665;28;20435;-43
2023/10/09 05:49:54;;;;;;;38.37;36.73;;;;;;;10.15;100.00;101625.34;5050773;28;20515;-41
2023/10/09 05:52:32;;;;;;;39.40;37.70;;;;;;;10.17;100.00;101624.16;5051147;28;20431;-44
2023/10/09 05:55:48;;;;;;;37.60;35.90;;;;;;;10.20;100.00;101613.16;5051657;28;20440;-43
2023/10/09 06:03:49;;;;;;;36.90;35.20;;;;;;;10.30;100.00;101615.63;5081052;28;20512;-45
2023/10/09 06:06:32;;;;;;;35.90;34.30;;;;;;;10.34;100.00;101614.25;5083199;28;20521;-41
2023/10/09 06:09:28;;;;;;;37.20;35.50;;;;;;;10.38;100.00;101615.56;5078108;28;20515;-42
2023/10/09 06:11:56;;;;;;;36.00;34.40;;;;;;;10.42;100.00;101615.03;5074412;28;20433;-44
2023/10/09 06:17:23;;;;;;;36.33;34.63;;;;;;;10.46;100.00;101612.84;5076319;28;20457;-42
2023/10/09 06:19:58;;;;;;;36.80;35.20;;;;;;;10.48;100.00;101602.88;5073615;28;20490;-42
2023/10/09 06:25:11;;;;;;;36.10;34.50;;;;;;;10.45;100.00;101596.03;5064314;28;20845;-42
2023/10/09 06:27:57;;;;;;;35.90;33.87;;;;;;;10.42;100.00;101595.56;5070592;28;20520;-42
2023/10/09 06:30:26;;;;;;;36.40;34.70;;;;;;;10.43;100.00;101590.03;5078722;28;20462;-44
2023/10/09 06:33:19;;;;;;;35.20;33.60;;;;;;;10.44;100.00;101589.06;5079482;28;20430;-42
2023/10/09 06:35:54;;;;;;;35.90;34.27;;;;;;;10.45;100.00;101587.22;5079381;28;20438;-40
2023/10/09 06:38:33;;;;;;;34.90;33.30;;;;;;;10.49;100.00;101584.00;5078515;28;20595;-39
2023/10/09 06:41:34;;;;;;;35.60;34.10;;;;;;;10.47;100.00;101582.53;5074954;28;20469;-44
2023/10/09 06:44:05;;;;;;;34.80;33.30;;;;;;;10.51;100.00;101581.19;5078546;28;20474;-41
2023/10/09 06:46:52;;;;;;;36.07;34.43;;;;;;;10.50;100.00;101575.00;5079136;28;20790;-42
2023/10/09 06:49:29;;;;;;;35.13;33.50;;;;;;;10.51;100.00;101582.00;5078594;28;20458;-40
2023/10/09 06:52:13;;;;;;;35.63;34.13;;;;;;;10.50;100.00;101588.34;5079165;28;20959;-42
2023/10/09 06:54:49;;;;;;;35.73;34.10;;;;;;;10.52;100.00;101585.50;5079067;28;20460;-44
2023/10/09 06:57:43;;;;;;;34.03;32.53;;;;;;;10.54;100.00;101584.31;5076583;28;20457;-43
2023/10/09 07:02:56;;;;;;;34.53;32.93;;;;;;;10.65;100.00;101580.41;5074115;28;20779;-46
2023/10/09 07:05:31;;;;;;;33.83;32.03;;;;;;;10.63;100.00;101573.59;5079120;28;20484;-45
2023/10/09 07:08:28;;;;;;;34.00;32.40;;;;;;;10.67;100.00;101572.22;5082610;28;20481;-45
2023/10/09 07:11:02;;;;;;;34.73;33.13;;;;;;;10.65;100.00;101566.25;5073641;28;21084;-41
2023/10/09 07:13:29;;;;;;;34.13;32.30;;;;;;;10.74;100.00;101565.19;5074302;28;20430;-43
2023/10/09 07:18:49;;;;;;;34.73;33.23;;;;;;;10.82;100.00;101573.13;5081915;28;20908;-40
2023/10/09 07:21:27;;;;;;;34.67;33.27;;;;;;;10.84;100.00;101574.59;5074195;28;20425;-41
2023/10/09 07:24:03;;;;;;;35.27;33.70;;;;;;;10.87;100.00;101578.78;5076993;28;20473;-44
2023/10/09 07:26:37;;;;;;;35.10;33.30;;;;;;;10.81;100.00;101585.63;5081027;28;20430;-41
2023/10/09 07:29:21;;;;;;;34.73;33.33;;;;;;;10.78;100.00;101577.19;5081705;28;20456;-43
2023/10/09 07:31:58;;;;;;;36.40;34.40;;;;;;;10.79;100.00;101585.00;5084199;28;20426;-41
2023/10/09 07:34:30;;;;;;;35.93;34.40;;;;;;;10.77;100.00;101587.00;5078750;28;20440;-44
2023/10/09 07:37:03;;;;;;;33.73;32.43;;;;;;;10.81;100.00;101590.16;5081946;28;20434;-43
2023/10/09 07:39:35;;;;;;;34.60;32.90;;;;;;;10.81;100.00;101596.31;5081326;28;20470;-42
2023/10/09 07:42:19;;;;;;;33.60;32.23;;;;;;;10.82;100.00;101597.13;5082002;28;20463;-40
2023/10/09 07:44:52;;;;;;;35.53;33.63;;;;;;;10.85;100.00;101592.28;5082094;28;20458;-42
2023/10/09 07:47:33;;;;;;;33.07;31.67;;;;;;;10.84;100.00;101593.28;5081937;28;20980;-40
2023/10/09 07:50:02;;;;;;;34.60;32.90;;;;;;;10.91;100.00;101596.06;5076495;28;20832;-43
2023/10/09 07:52:31;;;;;;;36.13;34.37;;;;;;;10.89;100.00;101598.09;5077896;28;20462;-48
2023/10/09 07:55:14;;;;;;;35.13;33.40;;;;;;;10.80;100.00;101594.66;5082003;28;20454;-44
2023/10/09 07:57:51;;;;;;;35.63;34.07;;;;;;;10.87;100.00;101602.78;5081533;28;20640;-43
2023/10/09 08:03:03;;;;;;;35.77;33.93;;;;;;;10.99;100.00;101590.69;5059779;28;20438;-43
2023/10/09 08:05:34;;;;;;;34.90;33.57;;;;;;;11.05;100.00;101588.13;5053291;28;20442;-43
2023/10/09 08:08:39;;;;;;;35.10;32.83;;;;;;;11.14;100.00;101588.88;5055923;28;20454;-40
2023/10/09 08:14:02;;;;;;;37.80;36.00;;;;;;;11.17;100.00;101596.53;5056656;28;20427;-42
2023/10/09 08:16:38;;;;;;;35.90;34.20;;;;;;;11.12;100.00;101604.25;5057137;28;20500;-43
2023/10/09 08:19:32;;;;;;;36.60;35.10;;;;;;;11.05;100.00;101600.66;5059828;28;20507;-42
2023/10/09 08:22:17;;;;;;;37.63;35.93;;;;;;;11.06;100.00;101604.97;5052931;28;20518;-42
2023/10/09 08:24:55;;;;;;;37.93;36.00;;;;;;;11.08;100.00;101605.59;5052758;28;20442;-42
2023/10/09 08:27:46;;;;;;;38.30;36.33;;;;;;;11.05;100.00;101606.81;5058347;28;20517;-43
2023/10/09 08:33:03;;;;;;;37.00;35.27;;;;;;;11.13;100.00;101607.75;5064027;28;20430;-41
2023/10/09 08:35:46;;;;;;;38.70;37.00;;;;;;;11.10;100.00;101607.13;5057111;28;20512;-45
2023/10/09 08:38:17;;;;;;;37.07;35.23;;;;;;;11.22;100.00;101607.53;5056977;28;20546;-44
2023/10/09 08:40:46;;;;;;;37.37;35.67;;;;;;;11.27;100.00;101605.13;5062974;28;20565;-42
2023/10/09 08:43:16;;;;;;;37.73;35.80;;;;;;;11.33;100.00;101600.91;5060607;28;20434;-42
2023/10/09 08:45:46;;;;;;;37.90;36.30;;;;;;;11.37;100.00;101603.06;5060591;28;20884;-43
2023/10/09 08:48:16;;;;;;;37.67;36.07;;;;;;;11.43;100.00;101598.81;5058705;28;20458;-43
2023/10/09 08:50:45;;;;;;;36.27;34.57;;;;;;;11.40;100.00;101605.38;5074352;28;20426;-48
2023/10/09 08:53:13;;;;;;;35.90;34.40;;;;;;;11.45;100.00;101600.28;5080609;28;20441;-42
2023/10/09 08:55:42;;;;;;;36.00;34.40;;;;;;;11.47;100.00;101595.59;5080433;28;20798;-39
2023/10/09 08:58:15;;;;;;;36.50;34.93;;;;;;;11.54;100.00;101598.38;5080036;28;20473;-45
2023/10/09 09:00:45;;;;;;;37.43;35.80;;;;;;;11.52;100.00;101601.25;5080315;28;20473;-42
2023/10/09 09:03:16;;;;;;;35.70;34.10;;;;;;;11.57;100.00;101601.50;5080729;28;20431;-39
2023/10/09 09:05:47;;;;;;;36.17;34.37;;;;;;;11.63;100.00;101598.13;5080547;28;20885;-40
2023/10/09 09:08:25;;;;;;;37.70;36.20;;;;;;;11.74;100.00;101602.19;5076117;28;20453;-45
2023/10/09 09:11:05;;;;;;;36.30;35.00;;;;;;;11.72;100.00;101608.75;5081598;28;20482;-40
2023/10/09 09:13:34;;;;;;;36.37;34.97;;;;;;;11.82;100.00;101604.81;5079473;28;20506;-40
2023/10/09 09:16:02;;;;;;;38.13;36.43;;;;;;;11.91;100.00;101605.53;5071987;28;20972;-41
2023/10/09 09:18:37;;;;;;;38.63;37.03;;;;;;;11.95;100.00;101609.47;5078322;28;20460;-40
2023/10/09 09:21:22;;;;;;;39.10;37.40;;;;;;;11.84;100.00;101613.47;5074962;28;20461;-41
2023/10/09 09:24:01;;;;;;;39.90;38.20;;;;;;;11.74;100.00;101598.72;5082461;28;20429;-39
2023/10/09 09:26:44;;;;;;;38.50;36.80;;;;;;;11.79;100.00;101610.53;5071122;28;20430;-42
2023/10/09 09:29:17;;;;;;;37.80;36.30;;;;;;;11.77;100.00;101614.38;5079372;28;20483;-46
2023/10/09 09:31:57;;;;;;;38.20;36.60;;;;;;;11.88;100.00;101609.41;5080193;28;20421;-41
2023/10/09 09:34:28;;;;;;;37.40;35.93;;;;;;;12.00;100.00;101599.91;5080220;28;20836;-45
2023/10/09 09:36:58;;;;;;;38.97;37.27;;;;;;;12.12;100.00;101598.44;5079735;28;20491;-43
2023/10/09 09:39:30;;;;;;;39.70;38.00;;;;;;;12.16;100.00;101597.03;5064963;28;20459;-42
2023/10/09 09:42:18;;;;;;;39.60;37.70;;;;;;;12.12;100.00;101592.25;5059769;28;20439;-44
2023/10/09 09:44:48;;;;;;;39.23;37.53;;;;;;;12.13;100.00;101581.38;5068606;28;20514;-44
2023/10/09 09:47:26;;;;;;;38.93;37.33;;;;;;;12.22;100.00;101574.06;5071235;28;21031;-41
2023/10/09 09:49:59;;;;;;;37.90;36.30;;;;;;;12.40;100.00;101569.16;5054928;28;20505;-45
2023/10/09 09:52:29;;;;;;;38.07;36.20;;;;;;;12.43;100.00;101574.13;5051423;28;20616;-42
2023/10/09 09:54:58;;;;;;;37.90;36.37;;;;;;;12.55;100.00;101571.78;5059691;28;20487;-45
2023/10/09 09:57:27;;;;;;;38.93;37.30;;;;;;;12.61;100.00;101569.19;5051387;28;20520;-41
2023/10/09 09:59:58;;;;;;;38.43;36.73;;;;;;;12.70;100.00;101551.97;5050393;28;21002;-40
2023/10/09 10:02:33;;;;;;;38.17;36.57;;;;;;;12.91;100.00;101553.00;5051495;28;20463;-39
2023/10/09 10:05:07;;;;;;;39.83;38.20;;;;;;;13.03;100.00;101551.44;5051105;28;20431;-39
2023/10/09 10:07:43;;;;;;;39.97;38.27;;;;;;;13.15;100.00;101549.94;5051164;28;20458;-40
2023/10/09 10:10:47;;;;;;;39.47;37.87;;;;;;;13.21;100.00;101546.50;5068724;28;20458;-40
2023/10/09 10:13:23;;;;;;;38.07;36.57;;;;;;;13.18;100.00;101549.56;5071015;28;20438;-43
2023/10/09 10:16:13;;;;;;;38.67;37.17;;;;;;;13.06;100.00;101559.94;5074213;28;20501;-39
2023/10/09 10:18:59;;;;;;;38.30;36.80;;;;;;;12.98;100.00;101565.44;5081254;28;20453;-38
2023/10/09 10:21:38;;;;;;;39.60;38.10;;;;;;;12.74;100.00;101565.81;5083417;28;20495;-38
2023/10/09 10:24:54;;;;;;;40.50;38.80;;;;;;;12.60;100.00;101578.22;5086321;28;20479;-40
2023/10/09 10:27:26;;;;;;;40.00;38.40;;;;;;;12.61;100.00;101589.75;5077231;28;20450;-39
2023/10/09 10:30:33;;;;;;;39.73;38.23;;;;;;;12.51;100.00;101597.28;5093246;28;20472;-38
2023/10/09 10:33:15;;;;;;;41.37;39.83;;;;;;;12.53;100.00;101597.91;5085482;28;20457;-39
2023/10/09 10:35:52;;;;;;;41.03;39.53;;;;;;;12.51;100.00;101598.09;5085787;28;20944;-38
2023/10/09 10:38:34;;;;;;;40.73;39.10;;;;;;;12.47;100.00;101602.16;5089520;28;20444;-41
2023/10/09 10:41:16;;;;;;;41.50;39.90;;;;;;;12.47;100.00;101607.50;5082250;28;20470;-42
2023/10/09 10:43:59;;;;;;;40.90;39.17;;;;;;;12.45;100.00;101609.56;5099059;28;20456;-38
2023/10/09 10:46:41;;;;;;;41.30;39.27;;;;;;;12.46;100.00;101605.84;5081346;28;20426;-40
2023/10/09 10:49:21;;;;;;;41.10;39.50;;;;;;;12.47;100.00;101610.19;5092194;28;20473;-38
2023/10/09 10:51:52;;;;;;;41.10;39.40;;;;;;;12.44;100.00;101601.69;5093417;28;20433;-41
2023/10/09 10:57:29;;;;;;;40.17;38.60;;;;;;;12.44;100.00;101585.66;5089370;28;20785;-39
2023/10/09 11:00:12;;;;;;;40.47;38.87;;;;;;;12.46;100.00;101594.31;5098483;28;20516;-41
2023/10/09 11:02:43;;;;;;;41.57;39.97;;;;;;;12.50;100.00;101591.09;5085036;28;20434;-41
2023/10/09 11:05:23;;;;;;;39.83;38.23;;;;;;;12.45;100.00;101598.03;5092631;28;20437;-42
2023/10/09 11:07:56;;;;;;;40.90;39.30;;;;;;;12.43;100.00;101595.50;5092300;28;20480;-42
2023/10/09 11:10:31;;;;;;;39.70;38.10;;;;;;;12.44;100.00;101594.50;5086430;28;20480;-44
2023/10/09 11:15:46;;;;;;;41.43;39.77;;;;;;;12.41;100.00;101597.56;5088866;28;20775;-42
2023/10/09 11:18:19;;;;;;;39.57;37.97;;;;;;;12.49;100.00;101600.13;5079551;28;20474;-38
2023/10/09 11:21:23;;;;;;;39.87;38.17;;;;;;;12.45;100.00;101601.53;5088311;28;20477;-40
2023/10/09 11:23:57;;;;;;;40.03;38.53;;;;;;;12.45;100.00;101598.84;5080834;28;20460;-39
2023/10/09 11:26:27;;;;;;;39.60;38.10;;;;;;;12.47;100.00;101604.00;5081246;28;20505;-42
2023/10/09 11:29:23;;;;;;;40.23;38.73;;;;;;;12.52;100.00;101605.09;5096346;28;20488;-42
2023/10/09 11:32:01;;;;;;;40.17;38.50;;;;;;;12.56;100.00;101605.56;5097875;28;20425;-41
2023/10/09 11:34:32;;;;;;;38.37;36.97;;;;;;;12.61;100.00;101606.63;5086036;28;20445;-41
2023/10/09 11:37:02;;;;;;;40.00;38.50;;;;;;;12.60;100.00;101601.50;5088314;28;20461;-40
2023/10/09 11:39:50;;;;;;;40.27;38.37;;;;;;;12.64;100.00;101603.59;5079372;28;20454;-42
2023/10/09 11:42:35;;;;;;;40.43;38.90;;;;;;;12.71;100.00;101595.63;5079489;28;20506;-39
2023/10/09 11:45:19;;;;;;;40.90;39.33;;;;;;;12.79;100.00;101603.53;5088200;28;20492;-38
2023/10/09 11:47:57;;;;;;;40.43;38.73;;;;;;;12.86;100.00;101604.44;5087867;28;20502;-38
2023/10/09 11:50:42;;;;;;;40.20;38.60;;;;;;;12.90;100.00;101615.59;5078609;28;20450;-44
2023/10/09 11:53:33;;;;;;;38.90;37.40;;;;;;;12.86;100.00;101600.94;5078947;28;20434;-39
2023/10/09 11:56:01;;;;;;;38.90;37.40;;;;;;;12.89;100.00;101603.22;5079730;28;20468;-41
2023/10/09 11:58:29;;;;;;;40.57;38.97;;;;;;;12.88;100.00;101598.88;5079096;28;20492;-40
2023/10/09 12:01:03;;;;;;;40.70;39.10;;;;;;;12.88;100.00;101594.38;5078964;28;20474;-42
2023/10/09 12:03:33;;;;;;;39.90;38.30;;;;;;;12.96;100.00;101588.88;5079354;28;20430;-43
2023/10/09 12:06:04;;;;;;;39.90;38.40;;;;;;;13.07;100.00;101584.88;5088138;28;20433;-40
2023/10/09 12:08:37;;;;;;;39.57;38.07;;;;;;;13.15;100.00;101574.88;5093024;28;20824;-39
2023/10/09 12:11:08;;;;;;;38.73;37.23;;;;;;;13.25;100.00;101574.56;5088983;28;20857;-41
2023/10/09 12:13:38;;;;;;;40.50;38.70;;;;;;;13.34;100.00;101565.34;5087924;28;20434;-42
2023/10/09 12:16:09;;;;;;;37.97;36.57;;;;;;;13.61;100.00;101577.91;5086883;28;20955;-41
2023/10/09 12:18:39;;;;;;;40.10;38.60;;;;;;;13.56;100.00;101574.97;5082222;28;20470;-42
2023/10/09 12:21:06;;;;;;;40.47;38.97;;;;;;;13.65;100.00;101576.47;5075477;28;20532;-40
2023/10/09 12:23:36;;;;;;;39.90;38.37;;;;;;;13.59;100.00;101585.31;5058898;28;20499;-42
2023/10/09 12:26:04;;;;;;;41.43;39.83;;;;;;;13.49;100.00;101582.16;5068235;28;20944;-39
2023/10/09 12:28:34;;;;;;;42.40;40.80;;;;;;;13.49;100.00;101578.66;5066996;28;20873;-42
2023/10/09 12:31:02;;;;;;;41.50;40.00;;;;;;;13.52;100.00;101583.63;5077481;28;20430;-39